Time;durP1;ratioP1;P1;durP2;ratioP2;P2;SDS_P1;SDS_P2;PMS_P1;PMS_P2;Temp;Humidity;BMP_temperature;BMP_pressure;BME280_temperature;BME280_humidity;BME280_pressure;Samples;Min_cycle;Max_cycle;Signal;HPM_P1;HPM_P2
2022/02/22 00:00:38;;;;;;;4.75;1.90;;;20.00;55.10;;;;;;5093867;28;20028;-71
2022/02/22 00:03:04;;;;;;;4.18;1.88;;;20.00;55.20;;;;;;5076606;28;20028;-71
2022/02/22 00:05:29;;;;;;;6.40;2.28;;;20.00;55.30;;;;;;5093696;28;20113;-71
2022/02/22 00:07:55;;;;;;;6.30;2.03;;;20.00;55.30;;;;;;5094447;28;20020;-71
2022/02/22 00:10:22;;;;;;;4.15;1.63;;;20.00;55.30;;;;;;5094175;28;20073;-71
2022/02/22 00:12:47;;;;;;;4.60;2.13;;;20.00;55.40;;;;;;5076057;28;20016;-71
2022/02/22 00:15:13;;;;;;;5.07;2.10;;;20.00;55.40;;;;;;5094156;28;20486;-72
2022/02/22 00:17:39;;;;;;;4.72;1.92;;;19.90;55.40;;;;;;5093998;28;20046;-71
2022/02/22 00:20:06;;;;;;;4.15;1.67;;;20.00;55.40;;;;;;5076065;28;20024;-71
2022/02/22 00:22:32;;;;;;;3.53;1.73;;;19.90;55.50;;;;;;5059436;28;20031;-72
2022/02/22 00:24:57;;;;;;;5.53;2.60;;;19.90;55.40;;;;;;5093808;28;20036;-71
2022/02/22 00:27:23;;;;;;;3.70;1.85;;;19.90;55.40;;;;;;5093728;28;20103;-71
2022/02/22 00:29:49;;;;;;;4.82;1.58;;;19.90;55.40;;;;;;5093977;28;20102;-71
2022/02/22 00:32:15;;;;;;;7.30;1.92;;;19.80;55.40;;;;;;5062723;28;20044;-71
2022/02/22 00:34:41;;;;;;;4.80;1.80;;;19.80;55.40;;;;;;5053516;28;20025;-71
2022/02/22 00:37:06;;;;;;;3.60;1.50;;;19.80;55.40;;;;;;5053613;28;20051;-71
2022/02/22 00:39:32;;;;;;;4.25;1.58;;;19.80;55.40;;;;;;5053591;28;20021;-71
2022/02/22 00:41:57;;;;;;;3.60;1.73;;;19.80;55.40;;;;;;5052734;28;20506;-71
2022/02/22 00:44:23;;;;;;;3.45;1.52;;;19.80;55.50;;;;;;5053364;28;20025;-71
2022/02/22 00:46:50;;;;;;;4.05;1.85;;;19.80;55.50;;;;;;5053258;28;20107;-71
2022/02/22 00:49:16;;;;;;;3.55;1.63;;;19.80;55.50;;;;;;5053507;28;20031;-71
2022/02/22 00:51:41;;;;;;;5.35;1.80;;;19.70;55.60;;;;;;5053158;28;20017;-71
2022/02/22 00:54:07;;;;;;;4.85;1.80;;;19.70;55.60;;;;;;5051962;28;20064;-71
2022/02/22 00:56:33;;;;;;;5.47;1.60;;;19.70;55.60;;;;;;5053030;28;20095;-71
2022/02/22 00:58:58;;;;;;;2.45;1.15;;;19.70;55.60;;;;;;5053160;28;20386;-72
2022/02/22 01:01:24;;;;;;;3.97;1.95;;;19.70;55.70;;;;;;5053298;28;20026;-72
2022/02/22 01:03:49;;;;;;;3.42;1.67;;;19.70;55.70;;;;;;5051924;28;20028;-72
2022/02/22 01:06:15;;;;;;;3.30;1.77;;;19.70;55.70;;;;;;5052971;28;20029;-72
2022/02/22 01:08:41;;;;;;;3.33;1.65;;;19.70;55.80;;;;;;5052959;28;20510;-71
2022/02/22 01:11:06;;;;;;;3.03;1.58;;;19.60;55.70;;;;;;5052718;28;20437;-71
2022/02/22 01:13:32;;;;;;;3.45;1.55;;;19.60;55.80;;;;;;5034992;28;20025;-71
2022/02/22 01:15:58;;;;;;;4.90;1.65;;;19.60;55.80;;;;;;5051626;28;20028;-71
2022/02/22 01:18:23;;;;;;;3.45;1.40;;;19.60;55.90;;;;;;5051546;28;20021;-71
2022/02/22 01:20:49;;;;;;;2.95;1.80;;;19.60;55.90;;;;;;5052694;28;20025;-72
2022/02/22 01:23:15;;;;;;;2.42;1.45;;;19.60;55.90;;;;;;5052739;28;20033;-72
2022/02/22 01:25:41;;;;;;;5.32;1.80;;;19.60;55.90;;;;;;5038235;28;20086;-72
2022/02/22 01:28:06;;;;;;;3.83;1.58;;;19.50;55.90;;;;;;5032744;28;20059;-71
2022/02/22 01:30:32;;;;;;;3.60;1.50;;;19.50;56.00;;;;;;5032693;28;20025;-72
2022/02/22 01:32:58;;;;;;;3.90;1.67;;;19.50;56.00;;;;;;5063717;28;20056;-72
2022/02/22 01:35:24;;;;;;;5.45;1.80;;;19.50;56.00;;;;;;5054668;28;20016;-72
2022/02/22 01:37:49;;;;;;;4.38;1.55;;;19.50;56.00;;;;;;5068864;28;20031;-71
2022/02/22 01:40:15;;;;;;;2.88;1.45;;;19.50;56.10;;;;;;5074376;28;20082;-71
2022/02/22 01:42:40;;;;;;;3.83;1.60;;;19.50;56.10;;;;;;5092676;28;20024;-71
2022/02/22 01:45:07;;;;;;;4.43;1.70;;;19.50;56.10;;;;;;5092576;28;20512;-71
2022/02/22 01:47:32;;;;;;;4.72;1.50;;;19.50;56.20;;;;;;5057854;28;20078;-71
2022/02/22 01:49:58;;;;;;;4.47;1.58;;;19.50;56.20;;;;;;5092552;28;20085;-71
2022/02/22 01:52:23;;;;;;;3.33;1.23;;;19.50;56.20;;;;;;5091853;28;20401;-71
2022/02/22 01:54:49;;;;;;;3.75;1.30;;;19.50;56.20;;;;;;5091939;28;20028;-71
2022/02/22 01:57:17;;;;;;;2.65;1.33;;;19.40;56.30;;;;;;5057942;28;20055;-71
2022/02/22 01:59:43;;;;;;;2.60;1.30;;;19.40;56.20;;;;;;5057806;28;20021;-71
2022/02/22 02:02:09;;;;;;;4.53;1.50;;;19.40;56.30;;;;;;5058085;28;20035;-71
2022/02/22 02:04:35;;;;;;;3.38;1.67;;;19.40;56.30;;;;;;5092360;28;20020;-71
2022/02/22 02:07:00;;;;;;;4.53;1.48;;;19.40;56.30;;;;;;5074373;28;20036;-71
2022/02/22 02:09:26;;;;;;;3.08;1.55;;;19.40;56.30;;;;;;5074311;28;20046;-71
2022/02/22 02:11:56;;;;;;;3.10;1.42;;;19.40;56.40;;;;;;5092344;28;20032;-71
2022/02/22 02:14:22;;;;;;;3.85;1.35;;;19.40;56.40;;;;;;5074201;28;20031;-71
2022/02/22 02:16:48;;;;;;;4.25;1.75;;;19.40;56.50;;;;;;5074220;28;20390;-71
2022/02/22 02:19:14;;;;;;;2.47;1.30;;;19.30;56.40;;;;;;5074422;28;20024;-71
2022/02/22 02:21:40;;;;;;;3.83;1.50;;;19.30;56.40;;;;;;5074204;28;20482;-71
2022/02/22 02:24:15;;;;;;;2.80;1.42;;;19.30;56.40;;;;;;5091837;28;20034;-71
2022/02/22 02:26:41;;;;;;;3.30;1.58;;;19.30;56.60;;;;;;5055301;28;20586;-71
2022/02/22 02:29:11;;;;;;;3.42;1.40;;;19.30;56.60;;;;;;5054103;28;20128;-71
2022/02/22 02:31:42;;;;;;;5.15;1.25;;;19.30;56.60;;;;;;5071934;28;20150;-71
2022/02/22 02:34:08;;;;;;;3.10;1.30;;;19.30;56.60;;;;;;5054246;28;20386;-71
2022/02/22 02:36:34;;;;;;;2.92;1.10;;;19.30;56.70;;;;;;5057766;28;20477;-71
2022/02/22 02:39:00;;;;;;;3.22;1.45;;;19.30;56.70;;;;;;5057159;28;20035;-71
2022/02/22 02:41:27;;;;;;;2.50;1.38;;;19.30;56.70;;;;;;5074150;28;20390;-71
2022/02/22 02:43:52;;;;;;;1.95;1.15;;;19.30;56.70;;;;;;5091966;28;20070;-71
2022/02/22 02:46:18;;;;;;;4.15;1.60;;;19.20;56.70;;;;;;5073803;28;20028;-71
2022/02/22 02:48:43;;;;;;;2.95;1.42;;;19.20;56.80;;;;;;5092094;28;20421;-71
2022/02/22 02:51:09;;;;;;;2.40;1.20;;;19.20;56.80;;;;;;5091803;28;20030;-71
2022/02/22 02:53:35;;;;;;;4.45;1.40;;;19.20;56.80;;;;;;5091547;28;20494;-71
2022/02/22 02:56:00;;;;;;;2.92;1.52;;;19.20;56.80;;;;;;5073766;28;20031;-71
2022/02/22 02:58:26;;;;;;;3.53;1.60;;;19.20;56.90;;;;;;5091947;28;20020;-71
2022/02/22 03:00:52;;;;;;;3.17;1.58;;;19.20;56.90;;;;;;5092024;28;20050;-71
2022/02/22 03:03:17;;;;;;;2.35;1.33;;;19.20;56.90;;;;;;5092176;28;20020;-71
2022/02/22 03:05:43;;;;;;;3.30;1.27;;;19.20;56.90;;;;;;5077293;28;20509;-71
2022/02/22 03:08:08;;;;;;;3.30;1.40;;;19.20;56.90;;;;;;5095189;28;20062;-71
2022/02/22 03:10:34;;;;;;;2.63;1.27;;;19.20;57.00;;;;;;5095636;28;20103;-71
2022/02/22 03:13:00;;;;;;;3.00;1.23;;;19.20;56.90;;;;;;5077506;28;20490;-71
2022/02/22 03:15:25;;;;;;;2.85;1.08;;;19.20;57.00;;;;;;5095228;28;20024;-71
2022/02/22 03:17:51;;;;;;;2.17;1.30;;;19.20;57.00;;;;;;5077183;28;20026;-71
2022/02/22 03:20:16;;;;;;;2.65;1.00;;;19.20;57.10;;;;;;5077251;28;20032;-71
2022/02/22 03:22:45;;;;;;;2.13;1.08;;;19.20;57.10;;;;;;5094989;28;20098;-71
2022/02/22 03:25:11;;;;;;;2.53;1.10;;;19.20;57.10;;;;;;5086399;28;20162;-71
2022/02/22 03:27:37;;;;;;;5.65;1.40;;;19.20;57.10;;;;;;5040546;28;20113;-71
2022/02/22 03:30:04;;;;;;;2.58;1.30;;;19.10;57.10;;;;;;5074797;28;20502;-71
2022/02/22 03:32:30;;;;;;;3.58;1.20;;;19.10;57.10;;;;;;5056903;28;20510;-71
2022/02/22 03:34:55;;;;;;;3.33;1.40;;;19.10;57.10;;;;;;5074512;28;20039;-71
2022/02/22 03:37:21;;;;;;;3.60;1.55;;;19.10;57.10;;;;;;5084985;28;20020;-71
2022/02/22 03:39:47;;;;;;;2.65;0.82;;;19.10;57.20;;;;;;5094810;28;20021;-71
2022/02/22 03:42:12;;;;;;;2.13;1.02;;;19.10;57.20;;;;;;5094716;28;20020;-71
2022/02/22 03:44:38;;;;;;;1.95;1.20;;;19.10;57.30;;;;;;5076906;28;20047;-71
2022/02/22 03:47:04;;;;;;;2.55;1.10;;;19.10;57.20;;;;;;5094688;28;20024;-71
2022/02/22 03:49:29;;;;;;;2.97;1.52;;;19.10;57.20;;;;;;5094836;28;20062;-71
2022/02/22 03:51:55;;;;;;;3.08;1.25;;;19.10;57.30;;;;;;5076310;28;20512;-71
2022/02/22 03:54:21;;;;;;;3.00;1.27;;;19.10;57.30;;;;;;5076462;28;20043;-71
2022/02/22 03:56:46;;;;;;;2.45;0.95;;;19.10;57.30;;;;;;5094590;28;20452;-71
2022/02/22 03:59:12;;;;;;;1.65;0.90;;;19.10;57.30;;;;;;5094497;28;20020;-71
2022/02/22 04:01:38;;;;;;;2.22;1.10;;;19.00;57.30;;;;;;5094435;28;20059;-71
2022/02/22 04:04:03;;;;;;;2.95;1.15;;;19.10;57.30;;;;;;5094427;28;20037;-71
2022/02/22 04:06:29;;;;;;;3.72;1.45;;;19.00;57.30;;;;;;5076062;28;20028;-71
2022/02/22 04:08:55;;;;;;;2.67;1.10;;;19.00;57.30;;;;;;5076335;28;20440;-71
2022/02/22 04:11:20;;;;;;;2.03;0.88;;;19.00;57.30;;;;;;5076548;28;20031;-70
2022/02/22 04:13:46;;;;;;;3.67;1.50;;;19.00;57.50;;;;;;5094191;28;20465;-70
2022/02/22 04:16:12;;;;;;;2.58;1.08;;;19.00;57.40;;;;;;5075169;28;20073;-70
2022/02/22 04:18:38;;;;;;;4.20;1.25;;;18.90;57.40;;;;;;5093922;28;20028;-71
2022/02/22 04:21:03;;;;;;;2.75;1.20;;;19.00;57.50;;;;;;5094027;28;20098;-71
2022/02/22 04:23:29;;;;;;;3.67;1.20;;;19.00;57.50;;;;;;5094140;28;20407;-71
2022/02/22 04:25:54;;;;;;;3.42;1.40;;;19.00;57.50;;;;;;5093787;28;20029;-71
2022/02/22 04:28:20;;;;;;;1.48;0.95;;;19.00;57.60;;;;;;5075874;28;20044;-71
2022/02/22 04:30:46;;;;;;;3.00;1.10;;;19.00;57.60;;;;;;5094066;28;20028;-71
2022/02/22 04:33:11;;;;;;;2.85;1.13;;;19.00;57.60;;;;;;5071976;28;20082;-71
2022/02/22 04:35:37;;;;;;;2.17;1.00;;;18.90;57.50;;;;;;5072193;28;20056;-71
2022/02/22 04:38:02;;;;;;;2.08;0.85;;;18.90;57.60;;;;;;5073438;28;20025;-71
2022/02/22 04:40:29;;;;;;;2.65;1.05;;;18.90;57.60;;;;;;5072434;28;20021;-71
2022/02/22 04:42:55;;;;;;;2.45;1.10;;;18.90;57.60;;;;;;5072138;28;20024;-71
2022/02/22 04:45:21;;;;;;;2.30;1.30;;;18.90;57.60;;;;;;5055770;28;20515;-71
2022/02/22 04:47:47;;;;;;;3.90;1.20;;;18.90;57.70;;;;;;5071818;28;20036;-71
2022/02/22 04:50:13;;;;;;;1.83;0.90;;;18.90;57.70;;;;;;5073346;28;20016;-71
2022/02/22 04:52:39;;;;;;;2.72;0.95;;;18.90;57.70;;;;;;5073487;28;20024;-71
2022/02/22 04:55:06;;;;;;;2.58;1.08;;;18.90;57.70;;;;;;5072906;28;20025;-71
2022/02/22 04:57:33;;;;;;;1.98;1.08;;;18.90;57.80;;;;;;5072103;28;20016;-71
2022/02/22 04:59:59;;;;;;;1.90;1.08;;;18.90;57.90;;;;;;5072984;28;20024;-71
2022/02/22 05:02:25;;;;;;;1.70;1.08;;;18.80;57.80;;;;;;5072728;28;20192;-71
2022/02/22 05:04:50;;;;;;;1.75;0.88;;;18.90;57.80;;;;;;5072038;28;20024;-71
2022/02/22 05:07:16;;;;;;;2.20;1.10;;;18.90;57.90;;;;;;5072938;28;20101;-71
2022/02/22 05:09:41;;;;;;;2.55;1.17;;;18.80;57.80;;;;;;5073041;28;20398;-71
2022/02/22 05:12:09;;;;;;;1.67;0.98;;;18.90;57.90;;;;;;5071515;28;20031;-71
2022/02/22 05:14:35;;;;;;;2.55;1.00;;;18.80;57.80;;;;;;5071924;28;20021;-71
2022/02/22 05:17:01;;;;;;;1.80;0.82;;;18.80;57.90;;;;;;5072407;28;20032;-71
2022/02/22 05:19:26;;;;;;;3.40;1.10;;;18.80;57.90;;;;;;5072862;28;20024;-71
2022/02/22 05:21:52;;;;;;;2.60;1.02;;;18.80;57.90;;;;;;5072714;28;20021;-71
2022/02/22 05:24:17;;;;;;;2.28;0.88;;;18.80;57.90;;;;;;5070080;28;20016;-71
2022/02/22 05:26:43;;;;;;;3.03;1.15;;;18.80;57.90;;;;;;5052382;28;20403;-71
2022/02/22 05:29:09;;;;;;;2.17;0.98;;;18.80;58.00;;;;;;5051924;28;20100;-71
2022/02/22 05:31:35;;;;;;;2.53;0.95;;;18.80;58.00;;;;;;5056267;28;20128;-71
2022/02/22 05:34:00;;;;;;;2.55;0.98;;;18.80;58.00;;;;;;5072500;28;20398;-71
2022/02/22 05:36:26;;;;;;;2.28;1.00;;;18.80;58.10;;;;;;5075155;28;20426;-71
2022/02/22 05:38:52;;;;;;;1.90;0.90;;;18.80;58.10;;;;;;5074903;28;20020;-71
2022/02/22 05:41:18;;;;;;;2.40;1.23;;;18.70;58.00;;;;;;5092720;28;20028;-71
2022/02/22 05:43:45;;;;;;;3.05;1.13;;;18.80;58.10;;;;;;5074715;28;20024;-71
2022/02/22 05:46:11;;;;;;;1.38;0.80;;;18.80;58.10;;;;;;5092270;28;20103;-71
2022/02/22 05:48:36;;;;;;;2.67;1.20;;;18.70;58.10;;;;;;5074617;28;20456;-71
2022/02/22 05:51:02;;;;;;;2.53;1.00;;;18.70;58.10;;;;;;5092525;28;20016;-71
2022/02/22 05:53:28;;;;;;;2.65;1.00;;;18.70;58.10;;;;;;5092669;28;20102;-71
2022/02/22 05:55:53;;;;;;;2.22;0.82;;;18.70;58.10;;;;;;5057771;28;20028;-71
2022/02/22 05:58:19;;;;;;;3.10;1.13;;;18.70;58.10;;;;;;5092531;28;20027;-71
2022/02/22 06:00:44;;;;;;;1.73;1.10;;;18.70;58.10;;;;;;5074207;28;20024;-71
2022/02/22 06:03:10;;;;;;;2.42;0.88;;;18.70;58.20;;;;;;5092385;28;20385;-71
2022/02/22 06:05:36;;;;;;;2.50;0.82;;;18.70;58.20;;;;;;5092415;28;20025;-71
2022/02/22 06:08:01;;;;;;;5.07;1.20;;;18.70;58.20;;;;;;5092402;28;20020;-71
2022/02/22 06:10:28;;;;;;;1.70;0.88;;;18.70;58.20;;;;;;5074440;28;20020;-71
2022/02/22 06:12:54;;;;;;;2.35;1.10;;;18.70;58.20;;;;;;5092289;28;20481;-71
2022/02/22 06:15:20;;;;;;;2.75;1.00;;;18.70;58.20;;;;;;5073750;28;20580;-71
2022/02/22 06:17:45;;;;;;;2.45;0.82;;;18.70;58.30;;;;;;5092332;28;20024;-71
2022/02/22 06:20:12;;;;;;;1.90;0.82;;;18.70;58.30;;;;;;5092152;28;20507;-71
2022/02/22 06:22:38;;;;;;;3.13;1.20;;;18.70;58.30;;;;;;5074479;28;20451;-71
2022/02/22 06:25:04;;;;;;;1.63;0.70;;;18.70;58.30;;;;;;5057313;28;20043;-71
2022/02/22 06:27:30;;;;;;;1.67;0.85;;;18.60;58.30;;;;;;5092193;28;20473;-71
2022/02/22 06:29:56;;;;;;;1.83;0.95;;;18.70;58.40;;;;;;5092024;28;20103;-71
2022/02/22 06:32:21;;;;;;;1.90;0.90;;;18.60;58.30;;;;;;5073918;28;20101;-71
2022/02/22 06:34:47;;;;;;;2.70;0.90;;;18.60;58.40;;;;;;5092073;28;20111;-71
2022/02/22 06:37:13;;;;;;;1.20;0.80;;;18.60;58.40;;;;;;5091929;28;20069;-71
2022/02/22 06:39:38;;;;;;;1.75;0.93;;;18.60;58.40;;;;;;5076179;28;20175;-71
2022/02/22 06:42:04;;;;;;;1.88;0.80;;;18.60;58.40;;;;;;5095974;28;20017;-71
2022/02/22 06:44:30;;;;;;;1.52;0.68;;;18.60;58.40;;;;;;5095957;28;20543;-71
2022/02/22 06:46:56;;;;;;;2.50;0.93;;;18.60;58.50;;;;;;5088344;28;20031;-71
2022/02/22 06:49:21;;;;;;;2.00;1.00;;;18.60;59.50;;;;;;5089425;28;20091;-71
2022/02/22 06:51:47;;;;;;;2.22;1.23;;;18.60;58.60;;;;;;5090983;28;20034;-71
2022/02/22 06:54:12;;;;;;;2.85;1.02;;;18.60;58.50;;;;;;5088729;28;20482;-71
2022/02/22 06:56:38;;;;;;;2.67;1.00;;;18.60;58.60;;;;;;5072999;28;20020;-71
2022/02/22 06:59:04;;;;;;;2.10;0.90;;;18.60;58.60;;;;;;5088902;28;20028;-71
2022/02/22 07:01:29;;;;;;;3.08;0.90;;;18.60;58.60;;;;;;5084671;28;20017;-71
2022/02/22 07:03:55;;;;;;;2.97;0.95;;;18.60;58.70;;;;;;5090697;28;20030;-70
2022/02/22 07:06:21;;;;;;;1.35;0.85;;;18.60;58.60;;;;;;5078120;28;20441;-71
2022/02/22 07:08:46;;;;;;;2.08;0.88;;;18.60;58.70;;;;;;5089648;28;20021;-71
2022/02/22 07:11:12;;;;;;;1.35;0.73;;;18.60;58.70;;;;;;5084133;28;20024;-71
2022/02/22 07:13:38;;;;;;;1.63;0.50;;;18.60;58.70;;;;;;5064240;28;20025;-70
2022/02/22 07:16:04;;;;;;;1.50;0.65;;;18.60;58.70;;;;;;5091319;28;20054;-70
2022/02/22 07:18:29;;;;;;;1.55;0.57;;;18.60;58.80;;;;;;5077321;28;20081;-71
2022/02/22 07:20:55;;;;;;;1.60;0.88;;;18.70;58.80;;;;;;5095009;28;20020;-71
2022/02/22 07:23:20;;;;;;;2.20;0.90;;;18.70;58.90;;;;;;5084415;28;20029;-71
2022/02/22 07:25:46;;;;;;;2.10;0.90;;;18.70;58.90;;;;;;5088361;28;20089;-71
2022/02/22 07:28:12;;;;;;;2.30;0.80;;;18.70;59.00;;;;;;5093588;28;20449;-71
2022/02/22 07:30:37;;;;;;;2.40;0.90;;;18.80;59.10;;;;;;5060820;28;20020;-70
2022/02/22 07:33:03;;;;;;;2.70;1.00;;;18.90;59.20;;;;;;5087054;28;20094;-70
2022/02/22 07:35:29;;;;;;;2.28;0.90;;;18.90;59.20;;;;;;5067855;28;20028;-71
2022/02/22 07:37:55;;;;;;;2.08;0.90;;;18.90;59.30;;;;;;5076309;28;20032;-71
2022/02/22 07:40:21;;;;;;;1.75;1.10;;;18.90;59.20;;;;;;5059829;28;20028;-71
2022/02/22 07:42:47;;;;;;;1.90;1.00;;;19.00;59.30;;;;;;5071310;28;20021;-70
2022/02/22 07:45:13;;;;;;;3.92;1.40;;;18.90;59.20;;;;;;5065333;28;20032;-70
2022/02/22 07:47:39;;;;;;;6.78;1.90;;;19.00;59.40;;;;;;5047531;28;20025;-70
2022/02/22 07:50:05;;;;;;;6.32;1.95;;;19.00;59.40;;;;;;5071744;28;20024;-70
2022/02/22 07:52:31;;;;;;;9.07;2.17;;;19.00;59.40;;;;;;5059232;28;20020;-70
2022/02/22 07:54:57;;;;;;;8.52;2.00;;;19.10;59.50;;;;;;5094499;28;20508;-70
2022/02/22 07:57:23;;;;;;;8.18;2.38;;;19.10;59.60;;;;;;5076148;28;20028;-70
2022/02/22 07:59:48;;;;;;;8.07;2.35;;;19.10;59.60;;;;;;5093682;28;20016;-70
2022/02/22 08:02:14;;;;;;;7.35;1.98;;;19.10;59.60;;;;;;5058911;28;20028;-70
2022/02/22 08:04:41;;;;;;;5.28;1.80;;;19.10;60.60;;;;;;5094579;28;20488;-71
2022/02/22 08:07:07;;;;;;;6.07;1.75;;;19.10;59.70;;;;;;5076576;28;20058;-70
2022/02/22 08:09:32;;;;;;;8.05;2.20;;;19.10;59.70;;;;;;5059328;28;20024;-70
2022/02/22 08:11:58;;;;;;;4.90;1.60;;;19.20;59.80;;;;;;5094162;28;20035;-70
2022/02/22 08:14:24;;;;;;;5.78;2.13;;;19.20;59.80;;;;;;5059454;28;20020;-70
2022/02/22 08:16:50;;;;;;;7.63;2.50;;;19.20;59.80;;;;;;5092782;28;20024;-70
2022/02/22 08:19:16;;;;;;;7.32;2.35;;;19.20;59.80;;;;;;5084865;28;20047;-70
2022/02/22 08:21:42;;;;;;;7.13;2.25;;;19.20;59.80;;;;;;5079825;28;20048;-70
2022/02/22 08:24:07;;;;;;;7.60;2.63;;;19.20;59.90;;;;;;5059443;28;20073;-70
2022/02/22 08:26:33;;;;;;;6.70;2.17;;;19.20;59.90;;;;;;5093547;28;20032;-70
2022/02/22 08:28:59;;;;;;;8.75;2.22;;;19.20;59.90;;;;;;5076058;28;20542;-70
2022/02/22 08:31:26;;;;;;;9.88;2.10;;;19.20;59.90;;;;;;5093901;28;20027;-70
2022/02/22 08:33:58;;;;;;;6.07;2.20;;;19.20;59.90;;;;;;5093139;28;20428;-70
2022/02/22 08:36:24;;;;;;;5.45;1.58;;;19.20;60.00;;;;;;5056546;28;20066;-70
2022/02/22 08:38:51;;;;;;;4.47;1.50;;;19.20;60.00;;;;;;5056051;28;20031;-70
2022/02/22 08:41:17;;;;;;;3.60;1.65;;;19.20;60.00;;;;;;5073223;28;20017;-70
2022/02/22 08:43:43;;;;;;;3.95;1.55;;;19.20;60.00;;;;;;5073276;28;20013;-70
2022/02/22 08:46:08;;;;;;;5.45;1.83;;;19.20;60.00;;;;;;5055632;28;20036;-70
2022/02/22 08:48:34;;;;;;;6.10;1.85;;;19.20;60.00;;;;;;5055520;28;20035;-70
2022/02/22 08:50:59;;;;;;;8.75;2.08;;;19.20;60.00;;;;;;5074497;28;20040;-70
2022/02/22 08:53:25;;;;;;;4.13;1.63;;;19.20;60.00;;;;;;5093430;28;20020;-70
2022/02/22 08:55:51;;;;;;;4.65;1.70;;;19.20;60.10;;;;;;5093125;28;20081;-70
2022/02/22 08:58:16;;;;;;;3.42;1.90;;;19.20;61.10;;;;;;5093346;28;20555;-70
2022/02/22 09:00:42;;;;;;;7.53;1.60;;;19.20;60.00;;;;;;5075471;28;20024;-70
2022/02/22 09:03:07;;;;;;;4.80;2.00;;;19.20;60.10;;;;;;5093168;28;20532;-70
2022/02/22 09:05:34;;;;;;;7.18;2.00;;;19.20;60.10;;;;;;5093105;28;20547;-70
2022/02/22 09:07:59;;;;;;;4.90;1.67;;;19.20;60.20;;;;;;5058944;28;20016;-70
2022/02/22 09:10:25;;;;;;;3.33;1.42;;;19.20;60.10;;;;;;5074990;28;20039;-70
2022/02/22 09:12:51;;;;;;;6.55;1.58;;;19.20;60.10;;;;;;5093030;28;20028;-70
2022/02/22 09:15:18;;;;;;;5.15;1.50;;;19.20;60.10;;;;;;5058538;28;20406;-69
2022/02/22 09:17:44;;;;;;;2.92;1.23;;;19.20;60.10;;;;;;5073171;28;20103;-70
2022/02/22 09:20:11;;;;;;;4.35;1.48;;;19.20;60.10;;;;;;5038350;28;20099;-70
2022/02/22 09:22:36;;;;;;;2.50;1.10;;;19.20;60.10;;;;;;5055355;28;20517;-70
2022/02/22 09:25:03;;;;;;;7.80;1.75;;;19.20;60.10;;;;;;5054965;28;20052;-70
2022/02/22 09:27:29;;;;;;;6.28;1.38;;;19.20;61.20;;;;;;5074852;28;20024;-70
2022/02/22 09:29:54;;;;;;;4.68;1.40;;;19.20;60.10;;;;;;5074974;28;20036;-70
2022/02/22 09:32:20;;;;;;;3.33;1.35;;;19.20;60.20;;;;;;5092692;28;20044;-70
2022/02/22 09:34:45;;;;;;;4.00;1.58;;;19.20;60.10;;;;;;5092658;28;20115;-70
2022/02/22 09:37:11;;;;;;;3.70;1.30;;;19.20;60.20;;;;;;5093276;28;20020;-70
2022/02/22 09:39:38;;;;;;;3.15;1.17;;;19.20;60.20;;;;;;5092237;28;20397;-70
2022/02/22 09:42:07;;;;;;;4.65;1.25;;;19.20;60.20;;;;;;5074983;28;20027;-70
2022/02/22 09:44:33;;;;;;;3.70;1.55;;;19.20;60.20;;;;;;5092575;28;20035;-70
2022/02/22 09:46:59;;;;;;;3.30;1.17;;;19.20;60.20;;;;;;5092738;28;20016;-70
2022/02/22 09:49:24;;;;;;;5.30;1.45;;;19.20;60.20;;;;;;5074465;28;20046;-70
2022/02/22 09:51:53;;;;;;;4.95;1.55;;;19.20;60.20;;;;;;5092531;28;20488;-70
2022/02/22 09:54:22;;;;;;;3.20;1.48;;;19.20;60.20;;;;;;5092405;28;20031;-70
2022/02/22 09:56:47;;;;;;;3.55;1.25;;;19.20;60.20;;;;;;5092696;28;20095;-70
2022/02/22 09:59:13;;;;;;;4.13;1.05;;;19.20;60.20;;;;;;5074446;28;20550;-70
2022/02/22 10:01:40;;;;;;;3.28;1.20;;;19.20;60.20;;;;;;5057762;28;20012;-70
2022/02/22 10:04:07;;;;;;;3.35;1.17;;;19.20;60.20;;;;;;5092589;28;20052;-70
2022/02/22 10:06:32;;;;;;;2.60;1.08;;;19.20;60.20;;;;;;5092282;28;20013;-70
2022/02/22 10:08:58;;;;;;;4.13;1.35;;;19.20;60.20;;;;;;5073957;28;20093;-70
2022/02/22 10:11:24;;;;;;;3.40;1.55;;;19.20;60.20;;;;;;5092416;28;20016;-70
2022/02/22 10:13:49;;;;;;;3.88;1.40;;;19.20;60.20;;;;;;5092989;28;20028;-70
2022/02/22 10:16:15;;;;;;;3.28;1.27;;;19.20;60.20;;;;;;5096532;28;20024;-70
2022/02/22 10:18:51;;;;;;;3.15;1.35;;;19.20;60.20;;;;;;5078209;28;20027;-70
2022/02/22 10:21:17;;;;;;;2.78;1.20;;;19.20;60.20;;;;;;5078175;28;20039;-70
2022/02/22 10:23:43;;;;;;;2.88;1.08;;;19.10;60.20;;;;;;5078250;28;21324;-70
2022/02/22 10:26:27;;;;;;;3.22;1.40;;;19.10;60.20;;;;;;5078412;28;20110;-70
2022/02/22 10:28:52;;;;;;;3.13;1.20;;;19.20;60.20;;;;;;5080202;28;20066;-70
2022/02/22 10:31:32;;;;;;;3.55;1.25;;;19.10;60.20;;;;;;5061499;28;20036;-70
2022/02/22 10:33:58;;;;;;;3.55;1.02;;;19.20;60.20;;;;;;5096240;28;20061;-70
2022/02/22 10:36:24;;;;;;;3.67;1.42;;;19.10;61.30;;;;;;5077817;28;20024;-70
2022/02/22 10:38:49;;;;;;;3.28;1.10;;;19.10;60.20;;;;;;5096196;28;20020;-70
2022/02/22 10:41:15;;;;;;;3.38;1.23;;;19.10;60.20;;;;;;5077968;28;20028;-70
2022/02/22 10:43:58;;;;;;;3.72;1.20;;;19.10;60.20;;;;;;5095893;28;20023;-70
2022/02/22 10:46:25;;;;;;;3.05;1.20;;;19.20;60.20;;;;;;5078130;28;20020;-70
2022/02/22 10:48:59;;;;;;;2.95;1.30;;;19.10;60.20;;;;;;5061593;28;20025;-70
2022/02/22 10:51:40;;;;;;;2.42;1.23;;;19.10;60.20;;;;;;5077763;28;20099;-70
2022/02/22 10:54:06;;;;;;;2.35;1.35;;;19.10;60.20;;;;;;5096040;28;20513;-70
2022/02/22 10:56:32;;;;;;;2.50;1.02;;;19.10;60.20;;;;;;5077823;28;20021;-70
2022/02/22 10:58:58;;;;;;;4.38;1.38;;;19.10;60.20;;;;;;5095815;28;20107;-70
2022/02/22 11:01:24;;;;;;;2.65;1.17;;;19.10;60.20;;;;;;5077685;28;20111;-70
2022/02/22 11:03:50;;;;;;;4.32;1.13;;;19.10;60.20;;;;;;5095633;28;20530;-70
2022/02/22 11:06:16;;;;;;;3.55;0.98;;;19.10;60.20;;;;;;5077176;28;20031;-70
2022/02/22 11:08:46;;;;;;;3.03;1.20;;;19.10;60.20;;;;;;5077511;28;20497;-70
2022/02/22 11:11:33;;;;;;;1.70;1.02;;;19.10;60.10;;;;;;5061412;28;20390;-70
2022/02/22 11:14:03;;;;;;;3.55;1.33;;;19.10;60.00;;;;;;5095473;28;20020;-70
2022/02/22 11:16:49;;;;;;;1.65;1.00;;;19.10;60.20;;;;;;5095428;28;20016;-70
2022/02/22 11:19:16;;;;;;;1.88;1.10;;;19.10;60.10;;;;;;5063098;28;20020;-70
2022/02/22 11:21:42;;;;;;;2.35;1.02;;;19.10;60.20;;;;;;5057179;28;20116;-70
2022/02/22 11:24:09;;;;;;;3.75;1.35;;;19.10;60.20;;;;;;5057421;28;20532;-70
2022/02/22 11:26:52;;;;;;;1.42;0.85;;;19.10;60.20;;;;;;5070370;28;20020;-70
2022/02/22 11:29:18;;;;;;;;;;;19.10;60.10;;;;;;5077702;28;20085;-70
2022/02/22 11:31:58;;;;;;;2.97;1.30;;;19.00;60.10;;;;;;5094926;28;19916;-70
2022/02/22 11:34:38;;;;;;;2.50;1.00;;;19.00;60.30;;;;;;5094565;28;20028;-70
2022/02/22 11:37:14;;;;;;;2.22;1.27;;;19.00;60.30;;;;;;5061833;28;20016;-70
2022/02/22 11:39:48;;;;;;;3.95;1.10;;;19.10;60.30;;;;;;5060463;28;20374;-70
2022/02/22 11:42:22;;;;;;;3.83;1.17;;;19.00;60.20;;;;;;5077189;28;20386;-70
2022/02/22 11:45:10;;;;;;;3.10;1.25;;;19.10;60.20;;;;;;5077109;28;20035;-70
2022/02/22 11:47:38;;;;;;;4.25;1.30;;;19.10;60.20;;;;;;5094814;28;20028;-70
2022/02/22 11:50:11;;;;;;;2.50;1.10;;;19.00;60.20;;;;;;5076754;28;20111;-70
2022/02/22 11:52:47;;;;;;;3.60;1.40;;;19.00;60.10;;;;;;5077018;28;20077;-70
2022/02/22 11:55:16;;;;;;;2.55;0.95;;;19.00;60.20;;;;;;5060683;28;20085;-69
2022/02/22 11:57:46;;;;;;;3.15;1.15;;;19.00;60.10;;;;;;5077016;28;20017;-69
2022/02/22 12:00:17;;;;;;;3.70;1.40;;;19.00;60.10;;;;;;5060166;28;20024;-70
2022/02/22 12:02:44;;;;;;;2.13;0.95;;;19.00;60.10;;;;;;5060042;28;20023;-70
2022/02/22 12:05:30;;;;;;;3.42;1.05;;;19.10;60.10;;;;;;5094530;28;20051;-69
2022/02/22 12:08:03;;;;;;;2.00;1.02;;;19.10;60.00;;;;;;5076607;28;20020;-69
2022/02/22 12:10:31;;;;;;;3.72;1.23;;;19.00;60.10;;;;;;5060043;28;20071;-69
2022/02/22 12:13:10;;;;;;;2.15;0.88;;;19.00;60.10;;;;;;5076099;28;20441;-70
2022/02/22 12:15:36;;;;;;;2.17;0.80;;;19.10;60.00;;;;;;5076120;28;20024;-70
2022/02/22 12:18:02;;;;;;;2.47;1.02;;;19.00;60.10;;;;;;5075714;28;20028;-69
2022/02/22 12:20:28;;;;;;;2.95;0.90;;;19.00;60.10;;;;;;5076136;28;20406;-69
2022/02/22 12:22:54;;;;;;;1.40;0.93;;;19.00;60.00;;;;;;5076144;28;20012;-70
2022/02/22 12:25:26;;;;;;;3.10;0.90;;;19.00;60.00;;;;;;5094129;28;20157;-70
2022/02/22 12:28:04;;;;;;;2.50;1.00;;;19.00;60.00;;;;;;5076566;28;20107;-70
2022/02/22 12:30:31;;;;;;;2.65;0.95;;;19.10;60.00;;;;;;5075999;28;20394;-70
2022/02/22 12:32:56;;;;;;;1.55;1.08;;;19.00;60.00;;;;;;5093444;28;20403;-69
2022/02/22 12:35:41;;;;;;;2.80;1.02;;;19.00;60.00;;;;;;5076076;28;20028;-70
2022/02/22 12:38:13;;;;;;;2.00;0.95;;;19.10;60.00;;;;;;5093383;28;20095;-70
2022/02/22 12:40:38;;;;;;;2.70;1.50;;;19.00;60.00;;;;;;5093870;28;20387;-70
2022/02/22 12:43:08;;;;;;;1.48;0.90;;;19.00;60.00;;;;;;5075593;28;20031;-70
2022/02/22 12:45:38;;;;;;;1.90;1.00;;;19.00;60.00;;;;;;5093795;28;20020;-70